Close

Questo sito utlizza cookie. Può leggere come li usiamo nella nostra Privacy Policy.

Ronchi Tower
Ronchi Tower

From Facebook

METAR & TAF

2019/06/25 07:50 LIPQ 250750Z VRB02KT CAVOK 29/19 Q1021
2019/06/25 06:21 TAF LIPQ 250500Z 2506/2606 VRB05KT CAVOK
2019/06/25 07:50 LIPZ 250750Z 06004KT 030V100 CAVOK 29/19 Q1021 NOSIG
2019/06/25 06:25 TAF LIPZ 250500Z 2506/2612 05006KT CAVOK TEMPO 2511/2517 16010KT
2019/06/25 07:50 LIPH 250750Z VRB03KT CAVOK 29/18 Q1021
2019/06/25 06:21 TAF LIPH 250500Z 2506/2606 VRB05KT CAVOK
2019/06/25 07:50 LIRF 250750Z 05005KT 010V080 CAVOK 29/15 Q1018 NOSIG
2019/06/25 06:24 TAF LIRF 250500Z 2506/2612 04008KT CAVOK BECMG 2508/2510 27012KT BECMG 2418/2420 VRB05KT BECMG 2608/2610 25010KT
2019/06/25 07:50 LIML 250750Z VRB03KT CAVOK 29/19 Q1022 NOSIG
2019/06/25 06:21 TAF LIML 250500Z 2506/2606 VRB05KT CAVOK
2019/06/25 07:50 EDDM 250750Z 08005KT 030V130 CAVOK 23/17 Q1021 NOSIG
2019/06/25 06:27 TAF EDDM 250500Z 2506/2612 08006KT CAVOK BECMG 2518/2520 VRB02KT
2019/06/25 07:50 EGSS 250750Z AUTO 01005KT 9999 FEW007 19/18 Q1017
2019/06/25 06:06 TAF TAF EGSS 250459Z 2506/2612 02006KT 9999 SCT045 TEMPO 2506/2508 3000 +SHRA BKN003 BKN045CB TEMPO 2508/2512 8000 BKN007 PROB30 TEMPO 2508/2510 2000 BR BKN003 BECMG 2518/2521 6000 BKN007 TEMPO 2521/2608 3000 BR BKN003 BECMG 2608/2611 9999 BKN020
2019/06/25 07:50 EDDF 250750Z 08007KT 050V120 CAVOK 26/16 Q1019 NOSIG
2019/06/25 06:28 TAF EDDF 250500Z 2506/2612 05006KT CAVOK BECMG 2507/2510 17007KT BECMG 2518/2521 VRB03KT

FlightRadar24

Radar Meteo

Traffic data

Agosto 2018

Passeggeri: 63892-12,9% (rank: 23)
Nazionali 34490 -19,8%
Internazionali 29193 -3,0%

Movimenti: 1307+11,7% (rank: 24)
Tot commerciale 556 -7,2%
Aviazione generale 751 +31,5%

Cargo (tons): 20,6+62,5% (rank: 21)

Gennaio - Agosto 2018

Passeggeri: 507438-3,5% (rank: 23)
Nazionali 322655 -4,9%
Internazionali 182927 -0,7%

Movimenti: 10366-4,25 (rank: 22)
Tot commerciale 5328 -11,0%
Aviazione generale 5038 +4,2%

Cargo (tons): 299,2+61,9% (rank: 20)

Photo

Douglas DC-6B
Douglas DC-6B
Distinct views: 16
Douglas DC-6B
Douglas DC-6B
Distinct views: 80
Douglas DC-6B
Douglas DC-6B
Distinct views: 248
Aerospatiale AS-332B1 Super Puma
Aerospatiale AS-332B1 Super Puma
Total views: 977